sensor_id;sensor_type;location;lat;lon;timestamp;P1;durP1;ratioP1;P2;durP2;ratioP2
6825;SDS011;3451;52.476;13.316;2022-09-03T00:01:15;2.50;;;1.50;;
6825;SDS011;3451;52.476;13.316;2022-09-03T00:03:51;6.83;;;1.80;;
6825;SDS011;3451;52.476;13.316;2022-09-03T00:06:29;3.53;;;1.50;;
6825;SDS011;3451;52.476;13.316;2022-09-03T00:11:34;2.57;;;1.53;;
6825;SDS011;3451;52.476;13.316;2022-09-03T00:14:05;2.73;;;1.50;;
6825;SDS011;3451;52.476;13.316;2022-09-03T00:16:36;3.00;;;1.50;;
6825;SDS011;3451;52.476;13.316;2022-09-03T00:19:06;3.20;;;1.73;;
6825;SDS011;3451;52.476;13.316;2022-09-03T00:21:35;2.87;;;1.43;;
6825;SDS011;3451;52.476;13.316;2022-09-03T00:24:03;6.13;;;1.90;;
6825;SDS011;3451;52.476;13.316;2022-09-03T00:26:36;5.83;;;1.97;;
6825;SDS011;3451;52.476;13.316;2022-09-03T00:29:10;2.27;;;1.40;;
6825;SDS011;3451;52.476;13.316;2022-09-03T00:31:40;5.07;;;1.67;;
6825;SDS011;3451;52.476;13.316;2022-09-03T00:34:30;7.37;;;1.50;;
6825;SDS011;3451;52.476;13.316;2022-09-03T00:36:56;3.73;;;1.60;;
6825;SDS011;3451;52.476;13.316;2022-09-03T00:39:23;3.43;;;1.57;;
6825;SDS011;3451;52.476;13.316;2022-09-03T00:42:02;7.53;;;1.53;;
6825;SDS011;3451;52.476;13.316;2022-09-03T00:44:47;4.93;;;1.63;;
6825;SDS011;3451;52.476;13.316;2022-09-03T00:47:27;2.53;;;1.60;;
6825;SDS011;3451;52.476;13.316;2022-09-03T00:50:01;3.70;;;1.50;;
6825;SDS011;3451;52.476;13.316;2022-09-03T00:52:48;3.23;;;1.40;;
6825;SDS011;3451;52.476;13.316;2022-09-03T01:00:14;1.87;;;1.50;;
6825;SDS011;3451;52.476;13.316;2022-09-03T01:05:23;4.37;;;1.90;;
6825;SDS011;3451;52.476;13.316;2022-09-03T01:16:08;2.23;;;1.50;;
6825;SDS011;3451;52.476;13.316;2022-09-03T01:21:31;2.10;;;1.50;;
6825;SDS011;3451;52.476;13.316;2022-09-03T01:24:15;4.33;;;1.40;;
6825;SDS011;3451;52.476;13.316;2022-09-03T01:26:49;2.80;;;1.40;;
6825;SDS011;3451;52.476;13.316;2022-09-03T01:29:37;1.73;;;1.47;;
6825;SDS011;3451;52.476;13.316;2022-09-03T01:32:13;4.20;;;1.50;;
6825;SDS011;3451;52.476;13.316;2022-09-03T01:35:02;2.10;;;1.30;;
6825;SDS011;3451;52.476;13.316;2022-09-03T01:37:36;4.33;;;1.30;;
6825;SDS011;3451;52.476;13.316;2022-09-03T01:41:05;1.97;;;1.33;;
6825;SDS011;3451;52.476;13.316;2022-09-03T01:43:08;3.00;;;1.50;;
6825;SDS011;3451;52.476;13.316;2022-09-03T01:45:39;3.87;;;1.40;;
6825;SDS011;3451;52.476;13.316;2022-09-03T01:50:54;2.57;;;1.30;;
6825;SDS011;3451;52.476;13.316;2022-09-03T01:53:37;3.77;;;1.50;;
6825;SDS011;3451;52.476;13.316;2022-09-03T02:01:05;2.30;;;1.30;;
6825;SDS011;3451;52.476;13.316;2022-09-03T02:03:38;3.23;;;1.40;;
6825;SDS011;3451;52.476;13.316;2022-09-03T02:06:06;2.50;;;1.53;;
6825;SDS011;3451;52.476;13.316;2022-09-03T02:08:33;2.67;;;1.27;;
6825;SDS011;3451;52.476;13.316;2022-09-03T02:10:59;2.23;;;1.50;;
6825;SDS011;3451;52.476;13.316;2022-09-03T02:13:30;2.97;;;1.60;;
6825;SDS011;3451;52.476;13.316;2022-09-03T02:15:58;3.93;;;1.50;;
6825;SDS011;3451;52.476;13.316;2022-09-03T02:18:28;1.87;;;1.20;;
6825;SDS011;3451;52.476;13.316;2022-09-03T02:20:56;2.30;;;1.50;;
6825;SDS011;3451;52.476;13.316;2022-09-03T02:23:23;2.23;;;1.30;;
6825;SDS011;3451;52.476;13.316;2022-09-03T02:25:57;4.47;;;1.50;;
6825;SDS011;3451;52.476;13.316;2022-09-03T02:28:25;2.23;;;1.50;;
6825;SDS011;3451;52.476;13.316;2022-09-03T02:30:51;2.20;;;1.40;;
6825;SDS011;3451;52.476;13.316;2022-09-03T02:33:18;3.93;;;1.37;;
6825;SDS011;3451;52.476;13.316;2022-09-03T02:35:45;3.10;;;1.23;;
6825;SDS011;3451;52.476;13.316;2022-09-03T02:38:13;2.53;;;1.40;;
6825;SDS011;3451;52.476;13.316;2022-09-03T02:40:40;3.67;;;1.43;;
6825;SDS011;3451;52.476;13.316;2022-09-03T02:43:07;3.47;;;1.70;;
6825;SDS011;3451;52.476;13.316;2022-09-03T02:45:36;1.57;;;1.27;;
6825;SDS011;3451;52.476;13.316;2022-09-03T02:48:05;2.93;;;1.70;;
6825;SDS011;3451;52.476;13.316;2022-09-03T02:50:39;2.50;;;1.57;;
6825;SDS011;3451;52.476;13.316;2022-09-03T02:53:05;3.43;;;1.53;;
6825;SDS011;3451;52.476;13.316;2022-09-03T02:55:32;3.67;;;1.57;;
6825;SDS011;3451;52.476;13.316;2022-09-03T02:57:58;2.40;;;1.57;;
6825;SDS011;3451;52.476;13.316;2022-09-03T03:00:25;2.80;;;1.37;;
6825;SDS011;3451;52.476;13.316;2022-09-03T03:02:54;4.80;;;1.37;;
6825;SDS011;3451;52.476;13.316;2022-09-03T03:05:23;5.57;;;1.50;;
6825;SDS011;3451;52.476;13.316;2022-09-03T03:07:51;3.57;;;1.50;;
6825;SDS011;3451;52.476;13.316;2022-09-03T03:10:17;3.23;;;1.50;;
6825;SDS011;3451;52.476;13.316;2022-09-03T03:12:44;2.33;;;1.40;;
6825;SDS011;3451;52.476;13.316;2022-09-03T03:15:10;1.97;;;1.50;;
6825;SDS011;3451;52.476;13.316;2022-09-03T03:17:37;4.13;;;2.17;;
6825;SDS011;3451;52.476;13.316;2022-09-03T03:20:03;5.00;;;1.50;;
6825;SDS011;3451;52.476;13.316;2022-09-03T03:22:29;2.67;;;1.40;;
6825;SDS011;3451;52.476;13.316;2022-09-03T03:24:56;3.47;;;1.73;;
6825;SDS011;3451;52.476;13.316;2022-09-03T03:27:22;5.93;;;1.60;;
6825;SDS011;3451;52.476;13.316;2022-09-03T03:29:49;3.33;;;1.50;;
6825;SDS011;3451;52.476;13.316;2022-09-03T03:32:15;3.93;;;1.60;;
6825;SDS011;3451;52.476;13.316;2022-09-03T03:34:42;3.00;;;1.80;;
6825;SDS011;3451;52.476;13.316;2022-09-03T03:37:08;2.50;;;1.70;;
6825;SDS011;3451;52.476;13.316;2022-09-03T03:39:34;3.97;;;1.30;;
6825;SDS011;3451;52.476;13.316;2022-09-03T03:42:00;5.77;;;1.87;;
6825;SDS011;3451;52.476;13.316;2022-09-03T03:44:27;5.90;;;1.80;;
6825;SDS011;3451;52.476;13.316;2022-09-03T03:46:54;2.67;;;1.60;;
6825;SDS011;3451;52.476;13.316;2022-09-03T03:49:20;3.20;;;1.73;;
6825;SDS011;3451;52.476;13.316;2022-09-03T03:51:46;2.70;;;1.40;;
6825;SDS011;3451;52.476;13.316;2022-09-03T03:54:13;2.57;;;1.70;;
6825;SDS011;3451;52.476;13.316;2022-09-03T03:56:42;3.43;;;1.77;;
6825;SDS011;3451;52.476;13.316;2022-09-03T03:59:12;2.77;;;1.70;;
6825;SDS011;3451;52.476;13.316;2022-09-03T04:01:39;4.93;;;1.70;;
6825;SDS011;3451;52.476;13.316;2022-09-03T04:04:05;4.70;;;2.07;;
6825;SDS011;3451;52.476;13.316;2022-09-03T04:06:31;4.47;;;1.80;;
6825;SDS011;3451;52.476;13.316;2022-09-03T04:08:58;4.47;;;1.70;;
6825;SDS011;3451;52.476;13.316;2022-09-03T04:11:24;3.27;;;1.60;;
6825;SDS011;3451;52.476;13.316;2022-09-03T04:13:51;6.53;;;1.70;;
6825;SDS011;3451;52.476;13.316;2022-09-03T04:16:19;3.20;;;1.90;;
6825;SDS011;3451;52.476;13.316;2022-09-03T04:18:45;5.43;;;1.70;;
6825;SDS011;3451;52.476;13.316;2022-09-03T04:21:18;6.23;;;1.80;;
6825;SDS011;3451;52.476;13.316;2022-09-03T04:23:46;2.03;;;1.50;;
6825;SDS011;3451;52.476;13.316;2022-09-03T04:26:14;6.00;;;1.70;;
6825;SDS011;3451;52.476;13.316;2022-09-03T04:28:40;3.30;;;1.80;;
6825;SDS011;3451;52.476;13.316;2022-09-03T04:31:08;3.63;;;1.93;;
6825;SDS011;3451;52.476;13.316;2022-09-03T04:33:36;3.50;;;1.70;;
6825;SDS011;3451;52.476;13.316;2022-09-03T04:36:09;4.37;;;2.00;;
6825;SDS011;3451;52.476;13.316;2022-09-03T04:38:37;2.60;;;1.80;;
6825;SDS011;3451;52.476;13.316;2022-09-03T04:41:04;4.23;;;1.83;;
6825;SDS011;3451;52.476;13.316;2022-09-03T04:43:31;4.10;;;1.87;;
6825;SDS011;3451;52.476;13.316;2022-09-03T04:46:02;4.83;;;1.70;;
6825;SDS011;3451;52.476;13.316;2022-09-03T04:48:29;3.50;;;1.97;;
6825;SDS011;3451;52.476;13.316;2022-09-03T04:51:03;3.70;;;1.90;;
6825;SDS011;3451;52.476;13.316;2022-09-03T04:53:36;5.27;;;2.20;;
6825;SDS011;3451;52.476;13.316;2022-09-03T04:56:10;4.23;;;2.10;;
6825;SDS011;3451;52.476;13.316;2022-09-03T04:58:36;6.33;;;2.13;;
6825;SDS011;3451;52.476;13.316;2022-09-03T05:01:07;4.80;;;1.80;;
6825;SDS011;3451;52.476;13.316;2022-09-03T05:03:34;3.10;;;1.80;;
6825;SDS011;3451;52.476;13.316;2022-09-03T05:06:02;5.43;;;2.20;;
6825;SDS011;3451;52.476;13.316;2022-09-03T05:08:28;4.83;;;1.90;;
6825;SDS011;3451;52.476;13.316;2022-09-03T05:10:58;4.60;;;2.40;;
6825;SDS011;3451;52.476;13.316;2022-09-03T05:13:25;5.87;;;2.30;;
6825;SDS011;3451;52.476;13.316;2022-09-03T05:15:52;2.93;;;1.90;;
6825;SDS011;3451;52.476;13.316;2022-09-03T05:18:18;4.97;;;2.30;;
6825;SDS011;3451;52.476;13.316;2022-09-03T05:20:45;3.37;;;2.27;;
6825;SDS011;3451;52.476;13.316;2022-09-03T05:23:12;3.07;;;2.37;;
6825;SDS011;3451;52.476;13.316;2022-09-03T05:25:39;4.27;;;2.20;;
6825;SDS011;3451;52.476;13.316;2022-09-03T05:28:05;3.67;;;2.10;;
6825;SDS011;3451;52.476;13.316;2022-09-03T05:30:32;4.97;;;2.10;;
6825;SDS011;3451;52.476;13.316;2022-09-03T05:32:59;4.00;;;2.00;;
6825;SDS011;3451;52.476;13.316;2022-09-03T05:35:25;2.93;;;2.23;;
6825;SDS011;3451;52.476;13.316;2022-09-03T05:37:55;4.20;;;2.03;;
6825;SDS011;3451;52.476;13.316;2022-09-03T05:40:21;4.53;;;2.13;;
6825;SDS011;3451;52.476;13.316;2022-09-03T05:42:52;7.07;;;2.53;;
6825;SDS011;3451;52.476;13.316;2022-09-03T05:45:20;4.03;;;2.20;;
6825;SDS011;3451;52.476;13.316;2022-09-03T05:47:46;2.60;;;2.20;;
6825;SDS011;3451;52.476;13.316;2022-09-03T05:50:12;5.47;;;2.00;;
6825;SDS011;3451;52.476;13.316;2022-09-03T05:52:39;4.47;;;2.17;;
6825;SDS011;3451;52.476;13.316;2022-09-03T05:55:05;3.90;;;2.30;;
6825;SDS011;3451;52.476;13.316;2022-09-03T05:57:36;4.60;;;2.17;;
6825;SDS011;3451;52.476;13.316;2022-09-03T06:00:03;2.70;;;2.07;;
6825;SDS011;3451;52.476;13.316;2022-09-03T06:02:29;6.00;;;2.37;;
6825;SDS011;3451;52.476;13.316;2022-09-03T06:04:57;5.40;;;2.00;;
6825;SDS011;3451;52.476;13.316;2022-09-03T06:07:24;2.70;;;1.90;;
6825;SDS011;3451;52.476;13.316;2022-09-03T06:09:50;4.23;;;2.10;;
6825;SDS011;3451;52.476;13.316;2022-09-03T06:12:16;3.47;;;2.10;;
6825;SDS011;3451;52.476;13.316;2022-09-03T06:14:43;3.30;;;2.00;;
6825;SDS011;3451;52.476;13.316;2022-09-03T06:17:09;2.83;;;2.10;;
6825;SDS011;3451;52.476;13.316;2022-09-03T06:19:37;6.87;;;1.97;;
6825;SDS011;3451;52.476;13.316;2022-09-03T06:22:03;6.13;;;2.50;;
6825;SDS011;3451;52.476;13.316;2022-09-03T06:24:30;2.77;;;2.03;;
6825;SDS011;3451;52.476;13.316;2022-09-03T06:26:58;6.17;;;2.30;;
6825;SDS011;3451;52.476;13.316;2022-09-03T06:29:24;6.80;;;2.30;;
6825;SDS011;3451;52.476;13.316;2022-09-03T06:31:50;4.17;;;2.23;;
6825;SDS011;3451;52.476;13.316;2022-09-03T06:34:17;3.83;;;2.30;;
6825;SDS011;3451;52.476;13.316;2022-09-03T06:36:44;4.87;;;2.23;;
6825;SDS011;3451;52.476;13.316;2022-09-03T06:39:10;3.97;;;2.10;;
6825;SDS011;3451;52.476;13.316;2022-09-03T06:41:37;4.77;;;2.47;;
6825;SDS011;3451;52.476;13.316;2022-09-03T06:44:04;3.70;;;2.27;;
6825;SDS011;3451;52.476;13.316;2022-09-03T06:46:32;3.93;;;2.20;;
6825;SDS011;3451;52.476;13.316;2022-09-03T06:48:58;2.83;;;2.10;;
6825;SDS011;3451;52.476;13.316;2022-09-03T06:51:26;4.50;;;2.00;;
6825;SDS011;3451;52.476;13.316;2022-09-03T06:53:54;3.03;;;2.17;;
6825;SDS011;3451;52.476;13.316;2022-09-03T06:56:24;5.80;;;3.37;;
6825;SDS011;3451;52.476;13.316;2022-09-03T06:58:53;5.93;;;2.17;;
6825;SDS011;3451;52.476;13.316;2022-09-03T07:01:21;6.10;;;2.20;;
6825;SDS011;3451;52.476;13.316;2022-09-03T07:03:52;4.03;;;2.17;;
6825;SDS011;3451;52.476;13.316;2022-09-03T07:06:21;3.97;;;2.00;;
6825;SDS011;3451;52.476;13.316;2022-09-03T07:08:48;4.50;;;2.20;;
6825;SDS011;3451;52.476;13.316;2022-09-03T07:11:15;8.37;;;2.27;;
6825;SDS011;3451;52.476;13.316;2022-09-03T07:13:43;3.97;;;2.10;;
6825;SDS011;3451;52.476;13.316;2022-09-03T07:16:11;4.60;;;2.00;;
6825;SDS011;3451;52.476;13.316;2022-09-03T07:18:38;5.33;;;2.07;;
6825;SDS011;3451;52.476;13.316;2022-09-03T07:21:06;2.97;;;1.83;;
6825;SDS011;3451;52.476;13.316;2022-09-03T07:23:33;5.00;;;1.90;;
6825;SDS011;3451;52.476;13.316;2022-09-03T07:26:01;3.87;;;1.63;;
6825;SDS011;3451;52.476;13.316;2022-09-03T07:28:28;4.60;;;2.27;;
6825;SDS011;3451;52.476;13.316;2022-09-03T07:30:59;4.17;;;2.00;;
6825;SDS011;3451;52.476;13.316;2022-09-03T07:33:27;6.47;;;2.00;;
6825;SDS011;3451;52.476;13.316;2022-09-03T07:36:03;4.40;;;2.00;;
6825;SDS011;3451;52.476;13.316;2022-09-03T07:38:31;4.87;;;2.20;;
6825;SDS011;3451;52.476;13.316;2022-09-03T07:40:58;2.03;;;1.70;;
6825;SDS011;3451;52.476;13.316;2022-09-03T07:43:26;3.27;;;1.80;;
6825;SDS011;3451;52.476;13.316;2022-09-03T07:45:53;2.40;;;1.70;;
6825;SDS011;3451;52.476;13.316;2022-09-03T07:48:20;4.87;;;2.00;;
6825;SDS011;3451;52.476;13.316;2022-09-03T07:50:47;5.00;;;2.20;;
6825;SDS011;3451;52.476;13.316;2022-09-03T07:53:17;6.87;;;2.17;;
6825;SDS011;3451;52.476;13.316;2022-09-03T07:55:45;10.47;;;2.30;;
6825;SDS011;3451;52.476;13.316;2022-09-03T07:58:13;2.80;;;2.03;;
6825;SDS011;3451;52.476;13.316;2022-09-03T08:00:39;2.43;;;1.70;;
6825;SDS011;3451;52.476;13.316;2022-09-03T08:03:05;4.17;;;2.10;;
6825;SDS011;3451;52.476;13.316;2022-09-03T08:05:34;4.87;;;1.90;;
6825;SDS011;3451;52.476;13.316;2022-09-03T08:08:04;2.67;;;1.97;;
6825;SDS011;3451;52.476;13.316;2022-09-03T08:10:35;6.13;;;2.07;;
6825;SDS011;3451;52.476;13.316;2022-09-03T08:13:03;2.97;;;2.00;;
6825;SDS011;3451;52.476;13.316;2022-09-03T08:15:32;9.67;;;6.13;;
6825;SDS011;3451;52.476;13.316;2022-09-03T08:17:59;5.73;;;2.70;;
6825;SDS011;3451;52.476;13.316;2022-09-03T08:20:31;2.83;;;2.00;;
6825;SDS011;3451;52.476;13.316;2022-09-03T08:23:00;3.10;;;1.97;;
6825;SDS011;3451;52.476;13.316;2022-09-03T08:25:27;5.93;;;1.73;;
6825;SDS011;3451;52.476;13.316;2022-09-03T08:27:56;2.53;;;1.93;;
6825;SDS011;3451;52.476;13.316;2022-09-03T08:30:22;2.60;;;1.60;;
6825;SDS011;3451;52.476;13.316;2022-09-03T08:32:50;5.93;;;1.90;;
6825;SDS011;3451;52.476;13.316;2022-09-03T08:35:17;2.80;;;1.50;;
6825;SDS011;3451;52.476;13.316;2022-09-03T08:37:43;3.00;;;1.60;;
6825;SDS011;3451;52.476;13.316;2022-09-03T08:40:10;2.50;;;1.57;;
6825;SDS011;3451;52.476;13.316;2022-09-03T08:45:23;2.10;;;1.50;;
6825;SDS011;3451;52.476;13.316;2022-09-03T08:48:02;5.00;;;1.73;;
6825;SDS011;3451;52.476;13.316;2022-09-03T08:50:41;3.93;;;1.90;;
6825;SDS011;3451;52.476;13.316;2022-09-03T08:53:14;2.33;;;1.50;;
6825;SDS011;3451;52.476;13.316;2022-09-03T08:58:15;5.13;;;1.80;;
6825;SDS011;3451;52.476;13.316;2022-09-03T09:00:57;3.40;;;1.67;;
6825;SDS011;3451;52.476;13.316;2022-09-03T09:13:56;5.23;;;1.70;;
6825;SDS011;3451;52.476;13.316;2022-09-03T09:16:35;3.67;;;1.60;;
6825;SDS011;3451;52.476;13.316;2022-09-03T09:22:33;6.17;;;1.67;;
6825;SDS011;3451;52.476;13.316;2022-09-03T09:24:44;4.33;;;1.93;;
6825;SDS011;3451;52.476;13.316;2022-09-03T09:27:12;3.10;;;1.47;;
6825;SDS011;3451;52.476;13.316;2022-09-03T09:29:43;5.13;;;1.83;;
6825;SDS011;3451;52.476;13.316;2022-09-03T09:32:12;3.57;;;1.57;;
6825;SDS011;3451;52.476;13.316;2022-09-03T09:34:39;3.47;;;1.40;;
6825;SDS011;3451;52.476;13.316;2022-09-03T09:37:08;4.80;;;1.20;;
6825;SDS011;3451;52.476;13.316;2022-09-03T09:39:35;3.60;;;1.40;;
6825;SDS011;3451;52.476;13.316;2022-09-03T09:42:04;2.80;;;1.37;;
6825;SDS011;3451;52.476;13.316;2022-09-03T09:44:35;3.10;;;1.30;;
6825;SDS011;3451;52.476;13.316;2022-09-03T09:47:12;2.70;;;1.60;;
6825;SDS011;3451;52.476;13.316;2022-09-03T09:49:50;3.70;;;1.53;;
6825;SDS011;3451;52.476;13.316;2022-09-03T09:52:17;4.80;;;1.40;;
6825;SDS011;3451;52.476;13.316;2022-09-03T09:54:44;2.23;;;1.40;;
6825;SDS011;3451;52.476;13.316;2022-09-03T09:57:14;2.17;;;1.40;;
6825;SDS011;3451;52.476;13.316;2022-09-03T09:59:42;2.00;;;1.33;;
6825;SDS011;3451;52.476;13.316;2022-09-03T10:02:11;2.70;;;1.30;;
6825;SDS011;3451;52.476;13.316;2022-09-03T10:04:47;4.23;;;1.37;;
6825;SDS011;3451;52.476;13.316;2022-09-03T10:10:34;3.67;;;1.10;;
6825;SDS011;3451;52.476;13.316;2022-09-03T10:12:39;2.63;;;1.57;;
6825;SDS011;3451;52.476;13.316;2022-09-03T10:17:48;2.67;;;1.30;;
6825;SDS011;3451;52.476;13.316;2022-09-03T10:20:18;4.53;;;1.27;;
6825;SDS011;3451;52.476;13.316;2022-09-03T10:23:05;9.00;;;1.40;;
6825;SDS011;3451;52.476;13.316;2022-09-03T10:25:34;4.00;;;1.10;;
6825;SDS011;3451;52.476;13.316;2022-09-03T10:28:04;1.70;;;1.20;;
6825;SDS011;3451;52.476;13.316;2022-09-03T10:30:31;3.17;;;1.10;;
6825;SDS011;3451;52.476;13.316;2022-09-03T10:33:08;2.37;;;1.10;;
6825;SDS011;3451;52.476;13.316;2022-09-03T10:35:46;2.13;;;1.30;;
6825;SDS011;3451;52.476;13.316;2022-09-03T10:38:26;3.70;;;1.40;;
6825;SDS011;3451;52.476;13.316;2022-09-03T10:41:00;2.73;;;1.47;;
6825;SDS011;3451;52.476;13.316;2022-09-03T10:43:35;4.27;;;1.20;;
6825;SDS011;3451;52.476;13.316;2022-09-03T10:46:10;5.17;;;1.57;;
6825;SDS011;3451;52.476;13.316;2022-09-03T10:48:44;3.33;;;1.20;;
6825;SDS011;3451;52.476;13.316;2022-09-03T10:51:16;2.27;;;1.40;;
6825;SDS011;3451;52.476;13.316;2022-09-03T10:56:14;3.57;;;1.37;;
6825;SDS011;3451;52.476;13.316;2022-09-03T11:01:34;2.40;;;1.20;;
6825;SDS011;3451;52.476;13.316;2022-09-03T11:06:42;4.73;;;1.30;;
6825;SDS011;3451;52.476;13.316;2022-09-03T11:09:15;3.93;;;1.50;;
6825;SDS011;3451;52.476;13.316;2022-09-03T11:11:49;3.10;;;1.30;;
6825;SDS011;3451;52.476;13.316;2022-09-03T11:14:19;4.93;;;1.80;;
6825;SDS011;3451;52.476;13.316;2022-09-03T11:16:51;2.80;;;1.33;;
6825;SDS011;3451;52.476;13.316;2022-09-03T11:19:20;4.90;;;1.47;;
6825;SDS011;3451;52.476;13.316;2022-09-03T11:21:48;4.27;;;1.10;;
6825;SDS011;3451;52.476;13.316;2022-09-03T11:24:24;4.10;;;1.40;;
6825;SDS011;3451;52.476;13.316;2022-09-03T11:26:54;3.00;;;1.10;;
6825;SDS011;3451;52.476;13.316;2022-09-03T11:29:31;2.30;;;1.20;;
6825;SDS011;3451;52.476;13.316;2022-09-03T11:32:04;3.27;;;1.47;;
6825;SDS011;3451;52.476;13.316;2022-09-03T11:37:16;3.37;;;1.27;;
6825;SDS011;3451;52.476;13.316;2022-09-03T11:42:39;4.03;;;1.40;;
6825;SDS011;3451;52.476;13.316;2022-09-03T11:47:41;3.42;;;1.40;;
6825;SDS011;3451;52.476;13.316;2022-09-03T11:53:08;1.50;;;1.17;;
6825;SDS011;3451;52.476;13.316;2022-09-03T11:55:48;2.60;;;1.30;;
6825;SDS011;3451;52.476;13.316;2022-09-03T11:58:21;2.83;;;1.70;;
6825;SDS011;3451;52.476;13.316;2022-09-03T12:00:49;4.07;;;1.50;;
6825;SDS011;3451;52.476;13.316;2022-09-03T12:03:41;4.80;;;1.30;;
6825;SDS011;3451;52.476;13.316;2022-09-03T12:06:18;2.13;;;1.20;;
6825;SDS011;3451;52.476;13.316;2022-09-03T12:11:40;3.40;;;1.37;;
6825;SDS011;3451;52.476;13.316;2022-09-03T12:17:04;2.10;;;1.27;;
6825;SDS011;3451;52.476;13.316;2022-09-03T12:19:41;2.47;;;1.07;;
6825;SDS011;3451;52.476;13.316;2022-09-03T12:22:13;2.17;;;1.43;;
6825;SDS011;3451;52.476;13.316;2022-09-03T12:24:41;2.23;;;1.50;;
6825;SDS011;3451;52.476;13.316;2022-09-03T12:27:11;4.70;;;1.60;;
6825;SDS011;3451;52.476;13.316;2022-09-03T12:29:38;6.88;;;1.40;;
6825;SDS011;3451;52.476;13.316;2022-09-03T12:32:15;1.50;;;1.30;;
6825;SDS011;3451;52.476;13.316;2022-09-03T12:34:43;3.30;;;1.50;;
6825;SDS011;3451;52.476;13.316;2022-09-03T12:37:18;2.63;;;1.40;;
6825;SDS011;3451;52.476;13.316;2022-09-03T12:40:14;2.90;;;1.67;;
6825;SDS011;3451;52.476;13.316;2022-09-03T12:42:41;2.00;;;1.30;;
6825;SDS011;3451;52.476;13.316;2022-09-03T12:45:07;5.93;;;1.40;;
6825;SDS011;3451;52.476;13.316;2022-09-03T12:47:38;3.43;;;1.23;;
6825;SDS011;3451;52.476;13.316;2022-09-03T12:50:12;1.67;;;1.03;;
6825;SDS011;3451;52.476;13.316;2022-09-03T12:52:40;2.33;;;1.27;;
6825;SDS011;3451;52.476;13.316;2022-09-03T12:55:13;3.80;;;1.43;;
6825;SDS011;3451;52.476;13.316;2022-09-03T12:57:44;3.90;;;1.30;;
6825;SDS011;3451;52.476;13.316;2022-09-03T13:00:13;2.20;;;1.50;;
6825;SDS011;3451;52.476;13.316;2022-09-03T13:02:48;4.00;;;1.10;;
6825;SDS011;3451;52.476;13.316;2022-09-03T13:05:17;2.90;;;1.20;;
6825;SDS011;3451;52.476;13.316;2022-09-03T13:07:46;6.93;;;1.53;;
6825;SDS011;3451;52.476;13.316;2022-09-03T13:10:23;3.00;;;1.27;;
6825;SDS011;3451;52.476;13.316;2022-09-03T13:12:50;2.70;;;1.50;;
6825;SDS011;3451;52.476;13.316;2022-09-03T13:15:20;5.13;;;1.50;;
6825;SDS011;3451;52.476;13.316;2022-09-03T13:17:52;6.83;;;1.83;;
6825;SDS011;3451;52.476;13.316;2022-09-03T13:20:33;3.73;;;1.50;;
6825;SDS011;3451;52.476;13.316;2022-09-03T13:33:19;5.47;;;1.80;;
6825;SDS011;3451;52.476;13.316;2022-09-03T13:35:53;3.73;;;1.50;;
6825;SDS011;3451;52.476;13.316;2022-09-03T13:44:05;4.47;;;1.40;;
6825;SDS011;3451;52.476;13.316;2022-09-03T13:46:40;2.93;;;1.83;;
6825;SDS011;3451;52.476;13.316;2022-09-03T13:49:13;1.87;;;1.40;;
6825;SDS011;3451;52.476;13.316;2022-09-03T13:52:01;3.03;;;1.60;;
6825;SDS011;3451;52.476;13.316;2022-09-03T13:54:30;2.10;;;1.17;;
6825;SDS011;3451;52.476;13.316;2022-09-03T14:05:04;4.83;;;1.77;;
6825;SDS011;3451;52.476;13.316;2022-09-03T14:10:18;2.93;;;1.43;;
6825;SDS011;3451;52.476;13.316;2022-09-03T14:12:51;2.88;;;1.30;;
6825;SDS011;3451;52.476;13.316;2022-09-03T14:15:29;2.10;;;1.43;;
6825;SDS011;3451;52.476;13.316;2022-09-03T14:18:12;5.10;;;1.57;;
6825;SDS011;3451;52.476;13.316;2022-09-03T14:23:39;5.38;;;2.72;;
6825;SDS011;3451;52.476;13.316;2022-09-03T14:26:14;3.05;;;1.63;;
6825;SDS011;3451;52.476;13.316;2022-09-03T14:28:48;2.03;;;1.40;;
6825;SDS011;3451;52.476;13.316;2022-09-03T14:31:18;3.67;;;1.67;;
6825;SDS011;3451;52.476;13.316;2022-09-03T14:39:11;2.17;;;1.33;;
6825;SDS011;3451;52.476;13.316;2022-09-03T14:42:03;6.17;;;1.60;;
6825;SDS011;3451;52.476;13.316;2022-09-03T14:55:18;6.43;;;1.90;;
6825;SDS011;3451;52.476;13.316;2022-09-03T14:57:53;3.07;;;1.70;;
6825;SDS011;3451;52.476;13.316;2022-09-03T15:10:43;2.83;;;1.70;;
6825;SDS011;3451;52.476;13.316;2022-09-03T15:13:16;2.17;;;1.60;;
6825;SDS011;3451;52.476;13.316;2022-09-03T15:15:48;4.37;;;1.30;;
6825;SDS011;3451;52.476;13.316;2022-09-03T15:18:31;3.57;;;1.50;;
6825;SDS011;3451;52.476;13.316;2022-09-03T15:21:16;3.13;;;1.60;;
6825;SDS011;3451;52.476;13.316;2022-09-03T15:23:49;2.40;;;1.50;;
6825;SDS011;3451;52.476;13.316;2022-09-03T15:26:24;4.23;;;1.80;;
6825;SDS011;3451;52.476;13.316;2022-09-03T15:31:54;4.17;;;1.77;;
6825;SDS011;3451;52.476;13.316;2022-09-03T15:37:11;4.07;;;1.70;;
6825;SDS011;3451;52.476;13.316;2022-09-03T15:39:40;4.17;;;1.53;;
6825;SDS011;3451;52.476;13.316;2022-09-03T15:42:12;2.37;;;1.50;;
6825;SDS011;3451;52.476;13.316;2022-09-03T15:44:41;2.23;;;1.40;;
6825;SDS011;3451;52.476;13.316;2022-09-03T15:47:12;2.60;;;1.50;;
6825;SDS011;3451;52.476;13.316;2022-09-03T15:49:47;3.37;;;1.80;;
6825;SDS011;3451;52.476;13.316;2022-09-03T15:52:22;2.37;;;1.57;;
6825;SDS011;3451;52.476;13.316;2022-09-03T15:54:59;4.77;;;2.00;;
6825;SDS011;3451;52.476;13.316;2022-09-03T15:57:29;4.63;;;1.80;;
6825;SDS011;3451;52.476;13.316;2022-09-03T16:00:02;3.00;;;1.87;;
6825;SDS011;3451;52.476;13.316;2022-09-03T16:02:32;4.57;;;1.90;;
6825;SDS011;3451;52.476;13.316;2022-09-03T16:07:53;2.80;;;1.80;;
6825;SDS011;3451;52.476;13.316;2022-09-03T16:10:21;3.03;;;1.80;;
6825;SDS011;3451;52.476;13.316;2022-09-03T16:15:47;3.67;;;1.87;;
6825;SDS011;3451;52.476;13.316;2022-09-03T16:18:25;5.67;;;1.90;;
6825;SDS011;3451;52.476;13.316;2022-09-03T16:21:00;3.20;;;1.73;;
6825;SDS011;3451;52.476;13.316;2022-09-03T16:26:08;6.13;;;2.30;;
6825;SDS011;3451;52.476;13.316;2022-09-03T16:28:40;3.23;;;2.03;;
6825;SDS011;3451;52.476;13.316;2022-09-03T16:36:17;2.50;;;1.80;;
6825;SDS011;3451;52.476;13.316;2022-09-03T16:44:13;5.13;;;2.13;;
6825;SDS011;3451;52.476;13.316;2022-09-03T16:49:18;7.83;;;1.97;;
6825;SDS011;3451;52.476;13.316;2022-09-03T16:51:54;4.03;;;1.90;;
6825;SDS011;3451;52.476;13.316;2022-09-03T16:56:53;2.60;;;2.07;;
6825;SDS011;3451;52.476;13.316;2022-09-03T16:59:30;4.87;;;2.10;;
6825;SDS011;3451;52.476;13.316;2022-09-03T17:05:19;3.93;;;2.07;;
6825;SDS011;3451;52.476;13.316;2022-09-03T17:10:38;3.13;;;2.03;;
6825;SDS011;3451;52.476;13.316;2022-09-03T17:16:12;4.53;;;2.43;;
6825;SDS011;3451;52.476;13.316;2022-09-03T17:18:57;6.27;;;2.53;;
6825;SDS011;3451;52.476;13.316;2022-09-03T17:21:36;4.57;;;2.17;;
6825;SDS011;3451;52.476;13.316;2022-09-03T17:24:16;4.93;;;2.30;;
6825;SDS011;3451;52.476;13.316;2022-09-03T17:27:08;4.07;;;2.20;;
6825;SDS011;3451;52.476;13.316;2022-09-03T17:32:21;5.97;;;2.63;;
6825;SDS011;3451;52.476;13.316;2022-09-03T17:39:50;11.67;;;3.50;;
6825;SDS011;3451;52.476;13.316;2022-09-03T17:42:28;3.80;;;2.90;;
6825;SDS011;3451;52.476;13.316;2022-09-03T17:45:02;5.57;;;2.97;;
6825;SDS011;3451;52.476;13.316;2022-09-03T17:50:25;4.53;;;3.57;;
6825;SDS011;3451;52.476;13.316;2022-09-03T17:52:54;8.97;;;3.63;;
6825;SDS011;3451;52.476;13.316;2022-09-03T17:57:53;10.87;;;3.53;;
6825;SDS011;3451;52.476;13.316;2022-09-03T18:00:23;6.30;;;3.47;;
6825;SDS011;3451;52.476;13.316;2022-09-03T18:02:52;9.17;;;3.50;;
6825;SDS011;3451;52.476;13.316;2022-09-03T18:05:22;5.23;;;3.50;;
6825;SDS011;3451;52.476;13.316;2022-09-03T18:10:33;6.47;;;3.50;;
6825;SDS011;3451;52.476;13.316;2022-09-03T18:13:24;6.63;;;3.67;;
6825;SDS011;3451;52.476;13.316;2022-09-03T18:18:26;9.60;;;3.80;;
6825;SDS011;3451;52.476;13.316;2022-09-03T18:20:53;10.77;;;3.90;;
6825;SDS011;3451;52.476;13.316;2022-09-03T18:23:59;5.70;;;3.77;;
6825;SDS011;3451;52.476;13.316;2022-09-03T18:26:46;8.10;;;4.63;;
6825;SDS011;3451;52.476;13.316;2022-09-03T18:29:38;7.07;;;4.00;;
6825;SDS011;3451;52.476;13.316;2022-09-03T18:32:28;6.27;;;3.90;;
6825;SDS011;3451;52.476;13.316;2022-09-03T18:35:13;6.43;;;3.47;;